Terminal Aerodrome Forecast
Issued by NWS

Home | Current Version | Previous Version | Text Only | Print | Product List | Glossary On
Versions: 1 2 3 4 5 6 7 8 9 10 11 12 13
832
FTUS45 KTFX 250520
TAFBZN
TAF
KBZN 250520Z 2506/2606 VRB04KT P6SM -SHRA BKN040
     FM251000 30005KT 2SM -SHRASN SCT005 OVC010
     FM251600 30005KT 6SM -SHRA OVC010
     FM252000 30006KT P6SM VCSH BKN040 PROB30 2521/2601 4SM -TSRA
      BKN030CB
     FM260500 VRB05KT P6SM BKN050=

USA.gov is the U.S. government's official web portal to all federal, state and local government web resources and services.